Time;durP1;ratioP1;P1;durP2;ratioP2;P2;SDS_P1;SDS_P2;PMS_P1;PMS_P2;Temp;Humidity;BMP_temperature;BMP_pressure;BME280_temperature;BME280_humidity;BME280_pressure;Samples;Min_cycle;Max_cycle;Signal;HPM_P1;HPM_P2
2021/11/16 00:00:56;;;;;;;43.65;27.60;;;;;;;5.30;90.69;102580.22;5096156;28;20028;-35
2021/11/16 00:03:22;;;;;;;44.33;27.93;;;;;;;5.21;90.72;102552.47;5096284;28;20028;-35
2021/11/16 00:05:47;;;;;;;42.60;28.57;;;;;;;5.29;90.37;102575.88;5096093;28;20468;-35
2021/11/16 00:08:13;;;;;;;42.08;27.25;;;;;;;5.26;90.86;102565.44;5096151;28;20103;-35
2021/11/16 00:10:39;;;;;;;44.63;29.10;;;;;;;5.23;91.13;102571.13;5095987;28;20024;-35
2021/11/16 00:13:10;;;;;;;44.13;26.60;;;;;;;5.27;91.07;102565.31;5095833;28;20551;-35
2021/11/16 00:15:38;;;;;;;43.33;27.40;;;;;;;5.23;90.96;102566.59;5095948;28;20077;-35
2021/11/16 00:18:03;;;;;;;42.15;27.08;;;;;;;5.16;91.40;102547.56;5094880;28;20031;-35
2021/11/16 00:20:29;;;;;;;43.37;27.77;;;;;;;5.27;91.52;102570.66;5095084;28;20040;-35
2021/11/16 00:22:55;;;;;;;42.60;29.20;;;;;;;5.25;91.85;102564.59;5095759;28;20032;-35
2021/11/16 00:25:32;;;;;;;48.42;30.63;;;;;;;5.23;91.71;102563.06;5095805;28;20032;-35
2021/11/16 00:27:58;;;;;;;45.28;28.80;;;;;;;5.27;91.82;102567.09;5096072;28;20027;-35
2021/11/16 00:30:23;;;;;;;44.30;27.40;;;;;;;5.25;91.39;102566.44;5096455;28;20024;-35
2021/11/16 00:32:48;;;;;;;44.17;28.13;;;;;;;5.21;91.55;102565.88;5095941;28;20059;-35
2021/11/16 00:35:14;;;;;;;44.63;27.60;;;;;;;5.23;91.85;102542.47;5096449;28;20395;-35
2021/11/16 00:37:39;;;;;;;44.53;27.10;;;;;;;5.28;91.37;102542.84;5095565;28;20028;-35
2021/11/16 00:40:09;;;;;;;44.17;27.60;;;;;;;5.23;91.43;102542.47;5096060;28;20020;-35
2021/11/16 00:42:35;;;;;;;40.05;25.70;;;;;;;5.30;91.75;102537.31;5095417;28;20032;-35
2021/11/16 00:45:00;;;;;;;42.63;27.53;;;;;;;5.28;91.31;102537.47;5096043;28;20039;-35
2021/11/16 00:47:26;;;;;;;42.55;27.80;;;;;;;5.23;91.50;102538.94;5095359;28;20032;-35
2021/11/16 00:49:51;;;;;;;44.23;28.40;;;;;;;5.27;91.60;102542.97;5095495;28;20043;-35
2021/11/16 00:52:17;;;;;;;41.73;27.40;;;;;;;5.17;91.49;102529.63;5096293;28;20262;-35
2021/11/16 00:54:43;;;;;;;43.58;28.20;;;;;;;5.10;91.57;102523.22;5095305;28;20093;-35
2021/11/16 00:57:08;;;;;;;45.57;27.87;;;;;;;5.18;91.78;102519.78;5093750;28;20040;-35
2021/11/16 00:59:34;;;;;;;45.60;28.67;;;;;;;5.20;91.53;102528.50;5095661;28;20138;-35
2021/11/16 01:01:59;;;;;;;42.80;26.40;;;;;;;5.22;92.16;102530.06;5095213;28;20051;-35
2021/11/16 01:04:28;;;;;;;45.03;27.87;;;;;;;5.22;91.83;102522.00;5095841;28;20027;-35
2021/11/16 01:06:55;;;;;;;41.58;25.92;;;;;;;5.32;91.45;102527.25;5094617;28;20028;-35
2021/11/16 01:09:20;;;;;;;41.63;25.88;;;;;;;5.31;92.84;102502.25;5095692;28;20472;-35
2021/11/16 01:11:46;;;;;;;45.38;27.05;;;;;;;5.28;91.74;102499.91;5094882;28;20050;-35
2021/11/16 01:14:12;;;;;;;44.88;26.98;;;;;;;5.35;91.89;102525.09;5094637;28;20448;-35
2021/11/16 01:16:40;;;;;;;42.60;26.98;;;;;;;5.36;91.84;102524.09;5094823;28;20059;-35
2021/11/16 01:19:07;;;;;;;41.13;27.42;;;;;;;5.36;92.14;102518.72;5094944;28;20028;-35
2021/11/16 01:21:33;;;;;;;40.20;25.90;;;;;;;5.40;91.98;102512.06;5094553;28;20103;-35
2021/11/16 01:23:59;;;;;;;42.75;27.80;;;;;;;5.34;90.90;102509.19;5094435;28;20021;-35
2021/11/16 01:26:25;;;;;;;43.38;27.90;;;;;;;5.32;91.35;102497.75;5094061;28;20073;-35
2021/11/16 01:28:51;;;;;;;39.78;26.52;;;;;;;5.23;90.86;102486.13;5094329;28;20508;-35
2021/11/16 01:31:17;;;;;;;43.87;28.37;;;;;;;5.37;92.00;102504.34;5094631;28;20106;-35
2021/11/16 01:33:52;;;;;;;45.85;29.02;;;;;;;5.38;91.71;102513.25;5094647;28;20332;-35
2021/11/16 01:36:18;;;;;;;46.05;29.73;;;;;;;5.15;91.53;102480.69;5094751;28;20426;-35
2021/11/16 01:38:43;;;;;;;43.63;28.33;;;;;;;5.29;91.37;102500.75;5094328;28;20024;-35
2021/11/16 01:41:10;;;;;;;45.70;28.60;;;;;;;5.32;92.39;102500.44;5094411;28;20024;-35
2021/11/16 01:43:37;;;;;;;43.25;27.40;;;;;;;5.35;91.97;102500.13;5095131;28;20583;-35
2021/11/16 01:46:08;;;;;;;44.40;29.02;;;;;;;5.26;91.25;102491.16;5094520;28;20115;-35
2021/11/16 01:48:35;;;;;;;45.63;29.02;;;;;;;5.24;91.43;102497.69;5094513;28;20035;-35
2021/11/16 01:51:01;;;;;;;47.83;30.15;;;;;;;5.25;91.76;102494.84;5094945;28;20107;-35
2021/11/16 01:53:26;;;;;;;50.15;30.88;;;;;;;5.17;91.78;102481.38;5094818;28;20420;-35
2021/11/16 01:55:52;;;;;;;47.30;28.60;;;;;;;5.28;92.05;102499.06;5094377;28;20080;-35
2021/11/16 01:58:17;;;;;;;44.83;27.23;;;;;;;5.32;92.07;102503.09;5094341;28;20032;-35
2021/11/16 02:00:46;;;;;;;44.10;28.50;;;;;;;5.32;91.77;102500.44;5093660;28;20273;-35
2021/11/16 02:03:13;;;;;;;44.08;29.85;;;;;;;5.24;91.92;102498.53;5093879;28;20035;-35
2021/11/16 02:05:43;;;;;;;49.63;29.90;;;;;;;5.24;92.22;102492.34;5093824;28;20031;-35
2021/11/16 02:08:10;;;;;;;42.35;28.52;;;;;;;5.22;92.27;102494.31;5094037;28;20032;-35
2021/11/16 02:10:38;;;;;;;46.60;28.85;;;;;;;5.27;92.34;102497.38;5094012;28;20430;-35
2021/11/16 02:13:03;;;;;;;45.08;29.27;;;;;;;5.19;92.59;102479.38;5094115;28;20079;-35
2021/11/16 02:15:29;;;;;;;44.00;29.27;;;;;;;5.23;92.67;102486.13;5093701;28;20062;-35
2021/11/16 02:17:54;;;;;;;48.60;29.30;;;;;;;5.24;92.23;102487.81;5094112;28;20024;-35
2021/11/16 02:20:20;;;;;;;44.03;27.90;;;;;;;5.28;93.08;102491.03;5093883;28;20028;-35
2021/11/16 02:22:46;;;;;;;43.40;28.20;;;;;;;5.28;92.76;102489.19;5094042;28;20475;-35
2021/11/16 02:25:12;;;;;;;43.40;28.30;;;;;;;5.24;92.55;102487.81;5093691;28;20472;-35
2021/11/16 02:27:37;;;;;;;43.22;25.63;;;;;;;5.32;93.75;102485.19;5093225;28;20031;-35
2021/11/16 02:30:04;;;;;;;47.63;28.83;;;;;;;5.19;93.11;102467.81;5093198;28;20028;-35
2021/11/16 02:32:30;;;;;;;45.20;29.95;;;;;;;5.21;92.55;102482.75;5093483;28;20031;-35
2021/11/16 02:34:56;;;;;;;47.42;29.08;;;;;;;5.12;92.78;102472.94;5093969;28;20024;-35
2021/11/16 02:37:21;;;;;;;45.78;28.02;;;;;;;5.18;92.48;102472.34;5093243;28;20431;-35
2021/11/16 02:39:46;;;;;;;40.07;26.37;;;;;;;5.30;93.33;102479.13;5093462;28;20028;-35
2021/11/16 02:42:12;;;;;;;46.40;27.53;;;;;;;5.28;92.46;102478.47;5093666;28;20071;-35
2021/11/16 02:44:41;;;;;;;45.60;28.63;;;;;;;5.24;92.13;102482.44;5093531;28;20020;-35
2021/11/16 02:47:06;;;;;;;47.08;29.42;;;;;;;5.19;92.72;102473.19;5093152;28;20056;-35
2021/11/16 02:49:34;;;;;;;41.83;28.87;;;;;;;5.25;92.87;102483.28;5093454;28;20476;-35
2021/11/16 02:51:59;;;;;;;42.47;27.33;;;;;;;5.24;92.34;102482.44;5092787;28;20103;-35
2021/11/16 02:54:26;;;;;;;46.63;29.57;;;;;;;5.27;92.83;102483.97;5093348;28;20075;-35
2021/11/16 02:56:51;;;;;;;;;;;;;;;5.37;92.39;102477.53;5093355;28;20277;-35
2021/11/16 02:59:16;;;;;;;46.55;28.30;;;;;;;5.29;92.35;102476.63;5093834;28;19980;-35
2021/11/16 03:01:42;;;;;;;45.17;29.13;;;;;;;5.26;92.17;102482.28;5093243;28;20039;-35
2021/11/16 03:04:08;;;;;;;51.88;30.65;;;;;;;5.25;92.49;102480.59;5093222;28;20485;-35
2021/11/16 03:06:34;;;;;;;44.67;28.80;;;;;;;5.06;92.38;102436.03;5092758;28;20025;-35
2021/11/16 03:09:00;;;;;;;46.22;29.88;;;;;;;5.21;92.72;102477.38;5093372;28;20081;-35
2021/11/16 03:11:25;;;;;;;45.95;30.67;;;;;;;5.16;91.95;102479.69;5093744;28;20356;-35
2021/11/16 03:13:51;;;;;;;49.23;30.53;;;;;;;5.12;92.74;102472.94;5092909;28;20055;-35
2021/11/16 03:16:20;;;;;;;48.65;31.20;;;;;;;5.09;92.70;102468.75;5092671;28;20335;-35
2021/11/16 03:18:53;;;;;;;52.22;30.77;;;;;;;5.11;93.00;102468.59;5093144;28;20032;-35
2021/11/16 03:21:21;;;;;;;49.38;29.45;;;;;;;5.13;93.14;102471.97;5093170;28;20028;-35
2021/11/16 03:23:49;;;;;;;48.70;30.95;;;;;;;5.05;93.05;102451.28;5093627;28;20039;-35
2021/11/16 03:26:17;;;;;;;47.08;29.75;;;;;;;5.21;94.05;102466.66;5092772;28;20024;-35
2021/11/16 03:28:45;;;;;;;52.88;32.55;;;;;;;5.04;93.67;102446.94;5093399;28;20028;-35
2021/11/16 03:31:36;;;;;;;50.03;31.75;;;;;;;5.06;93.29;102455.66;5092753;28;20119;-35
2021/11/16 03:34:02;;;;;;;44.65;29.98;;;;;;;5.11;93.05;102463.22;5093607;28;20028;-35
2021/11/16 03:36:28;;;;;;;48.03;30.63;;;;;;;5.18;93.74;102461.63;5092473;28;20464;-35
2021/11/16 03:38:56;;;;;;;48.43;31.33;;;;;;;5.11;93.20;102457.84;5092784;28;20032;-35
2021/11/16 03:41:22;;;;;;;50.97;31.45;;;;;;;5.13;94.13;102459.41;5092463;28;20024;-35
2021/11/16 03:43:50;;;;;;;45.55;29.17;;;;;;;5.14;95.01;102452.19;5093550;28;20031;-35
2021/11/16 03:46:16;;;;;;;44.40;28.00;;;;;;;5.23;94.73;102459.31;5092721;28;20443;-35
2021/11/16 03:48:41;;;;;;;51.73;31.37;;;;;;;5.24;94.69;102458.31;5092721;28;20047;-35
2021/11/16 03:51:07;;;;;;;48.67;30.20;;;;;;;5.26;94.08;102460.81;5096243;28;20036;-35
2021/11/16 03:53:34;;;;;;;48.90;29.10;;;;;;;5.18;93.70;102450.91;5096971;28;20027;-35
2021/11/16 03:56:00;;;;;;;47.88;28.85;;;;;;;5.27;94.11;102460.69;5097041;28;20368;-35
2021/11/16 03:58:26;;;;;;;47.25;30.52;;;;;;;5.29;94.00;102463.19;5096526;28;20107;-35
2021/11/16 04:00:55;;;;;;;43.38;27.33;;;;;;;5.31;94.22;102467.41;5095922;28;20112;-35
2021/11/16 04:03:24;;;;;;;44.95;29.80;;;;;;;5.22;93.13;102463.00;5096494;28;20024;-35
2021/11/16 04:05:50;;;;;;;47.55;31.00;;;;;;;5.24;93.56;102470.88;5096142;28;20071;-35
2021/11/16 04:08:16;;;;;;;51.78;31.67;;;;;;;5.25;93.67;102464.50;5096373;28;20032;-35
2021/11/16 04:10:42;;;;;;;47.88;31.27;;;;;;;5.21;94.00;102457.75;5096017;28;20111;-35
2021/11/16 04:13:09;;;;;;;49.75;30.58;;;;;;;5.23;93.69;102464.69;5095977;28;20033;-35
2021/11/16 04:15:35;;;;;;;50.45;32.72;;;;;;;5.20;94.31;102462.28;5095913;28;20490;-35
2021/11/16 04:18:01;;;;;;;52.28;31.73;;;;;;;5.00;93.96;102436.66;5096174;28;20107;-35
2021/11/16 04:20:26;;;;;;;;;;;;;;;5.27;93.41;102459.81;5096862;28;20426;-35
2021/11/16 04:22:52;;;;;;;50.00;29.70;;;;;;;5.23;94.07;102458.47;5096521;28;19908;-35
2021/11/16 04:25:18;;;;;;;49.03;32.45;;;;;;;5.12;92.95;102460.41;5096067;28;20349;-35
2021/11/16 04:27:44;;;;;;;55.05;33.03;;;;;;;5.06;93.89;102469.06;5095742;28;20043;-35
2021/11/16 04:30:11;;;;;;;;;;;;;;;5.11;93.76;102466.75;5095797;28;20032;-35
2021/11/16 04:32:36;;;;;;;50.57;30.50;;;;;;;5.04;93.60;102467.53;5095554;28;19908;-35
2021/11/16 04:35:03;;;;;;;54.23;32.67;;;;;;;5.03;93.69;102463.19;5096317;28;20279;-35
2021/11/16 04:37:29;;;;;;;49.15;30.80;;;;;;;5.02;94.44;102456.09;5095112;28;20313;-35
2021/11/16 04:39:54;;;;;;;54.47;32.10;;;;;;;4.99;94.50;102440.34;5096296;28;20074;-35
2021/11/16 04:42:20;;;;;;;49.43;31.73;;;;;;;5.04;94.69;102454.97;5095100;28;20055;-35
2021/11/16 04:44:47;;;;;;;54.10;33.15;;;;;;;5.08;94.16;102455.50;5095933;28;20028;-35
2021/11/16 04:47:17;;;;;;;51.05;31.08;;;;;;;5.00;94.46;102450.91;5094985;28;20103;-35
2021/11/16 04:49:46;;;;;;;50.47;31.40;;;;;;;4.96;94.28;102440.66;5094915;28;20464;-35
2021/11/16 04:55:04;;;;;;;49.85;29.25;;;;;;;5.11;95.07;102456.03;5095419;28;20040;-35
2021/11/16 05:02:43;;;;;;;53.80;31.35;;;;;;;5.15;95.00;102459.25;5094619;28;20032;-35
2021/11/16 05:05:16;;;;;;;51.30;30.73;;;;;;;5.05;94.73;102447.75;5095668;28;20039;-35
2021/11/16 05:08:00;;;;;;;52.20;30.77;;;;;;;5.19;93.98;102460.63;5094819;28;20387;-35
2021/11/16 05:10:26;;;;;;;58.38;32.55;;;;;;;4.97;94.30;102437.81;5095602;28;20067;-35
2021/11/16 05:12:52;;;;;;;47.00;27.80;;;;;;;5.24;95.30;102466.34;5094593;28;20032;-35
2021/11/16 05:15:19;;;;;;;49.30;30.65;;;;;;;5.19;94.62;102457.94;5094938;28;20047;-35
2021/11/16 05:17:49;;;;;;;53.28;31.60;;;;;;;5.22;94.16;102463.00;5094558;28;20027;-35
2021/11/16 05:20:17;;;;;;;55.58;33.25;;;;;;;5.18;94.32;102458.94;5094544;28;20020;-35
2021/11/16 05:22:45;;;;;;;53.60;32.55;;;;;;;5.24;93.72;102461.00;5094400;28;20028;-34
2021/11/16 05:25:10;;;;;;;53.00;32.50;;;;;;;5.21;94.10;102460.44;5095058;28;20444;-35
2021/11/16 05:27:37;;;;;;;54.72;30.73;;;;;;;5.28;94.94;102466.88;5094384;28;20031;-35
2021/11/16 05:30:07;;;;;;;52.17;30.48;;;;;;;5.29;94.02;102466.72;5095076;28;20040;-34
2021/11/16 05:32:33;;;;;;;53.58;31.58;;;;;;;5.25;94.46;102469.88;5094218;28;20020;-34
2021/11/16 05:34:58;;;;;;;;;;;;;;;5.33;94.55;102478.84;5094975;28;20036;-34
2021/11/16 05:37:24;;;;;;;54.00;30.90;;;;;;;5.28;94.20;102477.63;5094989;28;19912;-34
2021/11/16 05:39:49;;;;;;;52.30;32.07;;;;;;;5.31;94.41;102471.91;5095119;28;20333;-34
2021/11/16 05:42:14;;;;;;;53.20;30.57;;;;;;;5.29;93.96;102469.41;5094539;28;20120;-34
2021/11/16 05:44:40;;;;;;;51.70;29.67;;;;;;;5.32;93.83;102468.22;5094458;28;20024;-34
2021/11/16 05:47:05;;;;;;;46.63;29.40;;;;;;;5.20;94.01;102450.72;5094884;28;20043;-34
2021/11/16 05:49:32;;;;;;;53.65;32.95;;;;;;;5.26;94.38;102466.19;5094424;28;20040;-34
2021/11/16 05:51:58;;;;;;;;;;;;;;;5.33;93.95;102467.25;5094390;28;20054;-34
2021/11/16 05:54:28;;;;;;;51.60;32.03;;;;;;;5.14;93.67;102461.09;5094567;28;19908;-34
2021/11/16 05:56:54;;;;;;;52.92;31.75;;;;;;;5.16;94.54;102452.88;5094142;28;20024;-34
2021/11/16 05:59:19;;;;;;;52.00;31.40;;;;;;;5.18;94.14;102466.97;5094853;28;20039;-34
2021/11/16 06:01:45;;;;;;;53.57;31.67;;;;;;;5.19;94.09;102467.81;5094029;28;20027;-34
2021/11/16 06:04:10;;;;;;;50.92;29.35;;;;;;;5.23;94.20;102474.56;5094354;28;20024;-34
2021/11/16 06:06:39;;;;;;;49.77;28.83;;;;;;;5.21;94.78;102461.28;5094566;28;20447;-34
2021/11/16 06:09:05;;;;;;;50.28;28.40;;;;;;;5.26;95.40;102458.97;5094745;28;20406;-34
2021/11/16 06:11:31;;;;;;;55.13;31.55;;;;;;;5.20;94.28;102459.59;5093845;28;20638;-34
2021/11/16 06:13:56;;;;;;;51.50;31.10;;;;;;;5.21;94.38;102455.94;5094373;28;20080;-34
2021/11/16 06:16:22;;;;;;;51.77;30.10;;;;;;;5.10;94.02;102448.13;5093811;28;20270;-34
2021/11/16 06:18:50;;;;;;;51.50;30.67;;;;;;;5.06;94.60;102442.25;5094268;28;20305;-34
2021/11/16 06:21:16;;;;;;;52.00;31.77;;;;;;;5.10;94.32;102454.34;5093609;28;20103;-34
2021/11/16 06:23:41;;;;;;;55.43;30.43;;;;;;;5.19;95.30;102455.25;5093964;28;20063;-34
2021/11/16 06:26:06;;;;;;;50.23;29.50;;;;;;;5.15;94.62;102462.75;5094096;28;20043;-34
2021/11/16 06:28:32;;;;;;;50.65;30.58;;;;;;;5.12;94.51;102462.22;5094364;28;20024;-34
2021/11/16 06:30:58;;;;;;;52.33;30.53;;;;;;;4.91;93.80;102454.50;5093971;28;20024;-34
2021/11/16 06:33:24;;;;;;;50.42;30.63;;;;;;;4.77;93.40;102437.13;5094192;28;20030;-34
2021/11/16 06:35:51;;;;;;;47.47;28.02;;;;;;;4.84;93.81;102459.66;5093608;28;20051;-34
2021/11/16 06:38:17;;;;;;;48.17;27.85;;;;;;;4.96;93.20;102479.03;5093799;28;20036;-34
2021/11/16 06:40:47;;;;;;;50.55;27.85;;;;;;;4.79;92.81;102445.88;5093399;28;20090;-34
2021/11/16 06:43:24;;;;;;;47.75;28.83;;;;;;;4.95;93.56;102474.66;5093527;28;20036;-34
2021/11/16 06:45:50;;;;;;;;;;;;;;;5.04;93.65;102470.22;5093638;28;20478;-34
2021/11/16 06:48:16;;;;;;;50.22;28.13;;;;;;;4.98;94.09;102465.44;5093021;28;20364;-34
2021/11/16 06:50:41;;;;;;;49.53;30.65;;;;;;;4.97;94.35;102458.41;5093162;28;20050;-34
2021/11/16 06:53:07;;;;;;;49.15;29.55;;;;;;;5.02;94.39;102461.47;5093529;28;20081;-34
2021/11/16 06:55:33;;;;;;;50.15;29.75;;;;;;;5.09;94.35;102473.28;5093526;28;20055;-34
2021/11/16 06:57:58;;;;;;;57.23;31.23;;;;;;;5.07;95.33;102462.69;5093673;28;20085;-34
2021/11/16 07:00:24;;;;;;;51.17;32.80;;;;;;;5.06;94.63;102463.69;5093714;28;20175;-34
2021/11/16 07:02:59;;;;;;;50.38;30.30;;;;;;;5.11;94.67;102471.28;5093035;28;20080;-34
2021/11/16 07:05:26;;;;;;;52.15;30.15;;;;;;;5.08;95.22;102460.88;5091951;28;20131;-34
2021/11/16 07:07:51;;;;;;;50.63;30.40;;;;;;;5.00;95.20;102466.16;5093275;28;20032;-34
2021/11/16 07:10:22;;;;;;;50.97;29.27;;;;;;;5.04;95.51;102462.19;5093925;28;20016;-34
2021/11/16 07:12:48;;;;;;;54.92;30.15;;;;;;;4.96;95.74;102443.34;5092787;28;20024;-34
2021/11/16 07:15:15;;;;;;;53.20;31.08;;;;;;;5.01;95.74;102449.91;5092557;28;20348;-34
2021/11/16 07:17:41;;;;;;;50.10;29.70;;;;;;;5.04;95.21;102460.34;5093219;28;20232;-34
2021/11/16 07:20:07;;;;;;;58.03;32.33;;;;;;;4.98;94.44;102466.31;5093571;28;20103;-34
2021/11/16 07:22:35;;;;;;;53.05;29.63;;;;;;;5.03;94.43;102463.19;5093126;28;20020;-34
2021/11/16 07:25:10;;;;;;;50.80;29.13;;;;;;;5.03;94.36;102457.81;5094962;28;20016;-34
2021/11/16 07:27:37;;;;;;;54.03;30.08;;;;;;;5.01;94.68;102452.59;5097685;28;20035;-34
2021/11/16 07:30:09;;;;;;;49.08;29.20;;;;;;;4.95;94.81;102444.34;5096777;28;20035;-34
2021/11/16 07:32:44;;;;;;;56.45;32.25;;;;;;;4.99;94.21;102462.63;5096787;28;20533;-34
2021/11/16 07:35:10;;;;;;;49.08;29.77;;;;;;;4.99;93.46;102470.69;5097216;28;20039;-34
2021/11/16 07:37:38;;;;;;;52.00;29.40;;;;;;;4.94;93.08;102477.50;5096608;28;20028;-34
2021/11/16 07:40:07;;;;;;;51.05;29.63;;;;;;;4.95;93.50;102473.81;5096646;28;20024;-34
2021/11/16 07:42:47;;;;;;;50.25;27.45;;;;;;;4.99;93.74;102477.88;5096219;28;20449;-34
2021/11/16 07:45:16;;;;;;;50.45;28.60;;;;;;;4.99;94.07;102472.53;5096649;28;20533;-34
2021/11/16 07:47:46;;;;;;;50.70;29.20;;;;;;;4.93;92.89;102478.47;5096458;28;20032;-34
2021/11/16 07:50:20;;;;;;;49.00;29.05;;;;;;;5.01;93.80;102478.56;5096547;28;20032;-34
2021/11/16 07:52:47;;;;;;;50.00;28.63;;;;;;;5.03;94.29;102482.78;5096773;28;20085;-34
2021/11/16 07:55:27;;;;;;;54.80;30.50;;;;;;;4.98;93.45;102481.53;5096375;28;20037;-34
2021/11/16 07:57:54;;;;;;;50.35;28.70;;;;;;;5.02;94.19;102474.88;5096439;28;20489;-34
2021/11/16 08:00:26;;;;;;;50.30;29.38;;;;;;;5.02;93.91;102475.72;5096538;28;20024;-34
2021/11/16 08:03:01;;;;;;;53.40;29.70;;;;;;;5.04;93.98;102472.91;5096236;28;20472;-34
2021/11/16 08:08:10;;;;;;;53.07;30.00;;;;;;;5.10;94.11;102474.94;5096171;28;20036;-34
2021/11/16 08:10:39;;;;;;;54.50;30.85;;;;;;;5.07;93.56;102469.88;5096012;28;20111;-34
2021/11/16 08:13:14;;;;;;;52.38;31.08;;;;;;;5.06;93.64;102471.72;5095586;28;20028;-34
2021/11/16 08:15:40;;;;;;;52.00;30.02;;;;;;;5.09;94.83;102473.28;5095940;28;20062;-34
2021/11/16 08:18:11;;;;;;;55.17;30.33;;;;;;;5.05;94.46;102472.75;5096696;28;20443;-34
2021/11/16 08:20:37;;;;;;;50.15;29.13;;;;;;;5.07;94.42;102469.88;5096424;28;20100;-34
2021/11/16 08:23:05;;;;;;;53.57;29.53;;;;;;;4.99;94.81;102448.41;5095339;28;20429;-34
2021/11/16 08:25:31;;;;;;;54.20;31.25;;;;;;;4.93;94.55;102447.19;5096443;28;20251;-34
2021/11/16 08:27:57;;;;;;;;;;;;;;;5.15;94.36;102461.91;5095892;28;20055;-34
2021/11/16 08:30:23;;;;;;;52.28;28.50;;;;;;;5.04;93.48;102446.09;5096442;28;19978;-34
2021/11/16 08:32:54;;;;;;;;;;;;;;;5.17;93.73;102454.53;5095786;28;20074;-34
2021/11/16 08:35:24;;;;;;;48.10;26.52;;;;;;;5.08;93.45;102453.66;5094838;28;19908;-34
2021/11/16 08:37:50;;;;;;;48.60;26.45;;;;;;;5.11;94.65;102457.84;5094885;28;20551;-34
2021/11/16 08:40:16;;;;;;;;;;;;;;;5.21;94.36;102458.59;5096839;28;20372;-34
2021/11/16 08:43:00;;;;;;;45.67;26.02;;;;;;;5.18;93.76;102456.25;5096273;28;19915;-34
2021/11/16 08:45:43;;;;;;;52.85;29.50;;;;;;;5.11;93.78;102453.34;5095772;28;20024;-34
2021/11/16 08:48:12;;;;;;;53.88;29.70;;;;;;;5.03;93.76;102444.41;5095722;28;20122;-34
2021/11/16 08:50:41;;;;;;;44.92;26.13;;;;;;;5.16;94.59;102463.59;5095298;28;20058;-34
2021/11/16 08:53:14;;;;;;;49.45;29.23;;;;;;;5.17;94.31;102457.22;5094973;28;20028;-34
2021/11/16 08:55:42;;;;;;;53.42;29.25;;;;;;;5.09;93.93;102447.31;5094991;28;20028;-34
2021/11/16 08:58:11;;;;;;;50.15;27.63;;;;;;;5.15;93.67;102456.56;5095503;28;20059;-34
2021/11/16 09:00:41;;;;;;;49.83;29.23;;;;;;;5.15;93.37;102451.19;5095216;28;20452;-34
2021/11/16 09:03:13;;;;;;;45.50;26.27;;;;;;;5.19;93.80;102444.53;5095203;28;20034;-35
2021/11/16 09:05:44;;;;;;;49.80;26.77;;;;;;;5.25;94.75;102445.72;5094792;28;20529;-34
2021/11/16 09:08:21;;;;;;;51.65;29.38;;;;;;;5.20;94.03;102443.53;5095120;28;20031;-34
2021/11/16 09:10:48;;;;;;;;;;;;;;;5.28;93.91;102432.03;5095455;28;20051;-34
2021/11/16 09:13:16;;;;;;;50.45;28.83;;;;;;;5.09;93.95;102430.38;5094839;28;19915;-34
2021/11/16 09:15:48;;;;;;;51.80;28.77;;;;;;;5.14;94.02;102444.16;5095238;28;20036;-34
2021/11/16 09:18:13;;;;;;;52.47;30.13;;;;;;;4.93;92.67;102414.13;5094791;28;20028;-34
2021/11/16 09:20:40;;;;;;;56.37;31.17;;;;;;;4.89;92.52;102424.34;5094790;28;20047;-34
2021/11/16 09:23:06;;;;;;;54.05;28.95;;;;;;;4.88;92.97;102438.72;5095281;28;20028;-34
2021/11/16 09:25:35;;;;;;;51.53;27.80;;;;;;;4.93;92.81;102440.94;5095570;28;20082;-34
2021/11/16 09:28:22;;;;;;;56.05;31.20;;;;;;;4.82;93.32;102431.31;5094631;28;20032;-34
2021/11/16 09:30:47;;;;;;;52.90;29.58;;;;;;;4.87;93.68;102434.38;5094947;28;20024;-34
2021/11/16 09:33:17;;;;;;;47.08;27.02;;;;;;;4.96;93.72;102429.94;5094598;28;20384;-34
2021/11/16 09:35:42;;;;;;;55.40;28.08;;;;;;;5.00;94.91;102425.94;5094779;28;20042;-34
2021/11/16 09:38:07;;;;;;;48.37;25.47;;;;;;;5.08;94.79;102434.06;5094278;28;20111;-34
2021/11/16 09:40:33;;;;;;;49.83;27.80;;;;;;;5.09;93.47;102438.41;5094650;28;20039;-34
2021/11/16 09:43:00;;;;;;;43.97;24.40;;;;;;;5.14;93.89;102422.69;5094770;28;20020;-34
2021/11/16 09:45:26;;;;;;;50.10;27.25;;;;;;;5.16;93.72;102426.06;5094903;28;20104;-34
2021/11/16 09:47:51;;;;;;;48.43;27.93;;;;;;;5.12;94.06;102430.03;5094500;28;20523;-34
2021/11/16 09:50:23;;;;;;;47.97;27.92;;;;;;;5.02;92.47;102430.13;5094583;28;20028;-34
2021/11/16 09:52:54;;;;;;;51.72;26.83;;;;;;;5.04;93.35;102432.69;5094142;28;20050;-34
2021/11/16 09:55:22;;;;;;;50.10;27.83;;;;;;;5.06;93.83;102433.34;5094436;28;20020;-34
2021/11/16 09:57:52;;;;;;;49.00;26.58;;;;;;;5.08;94.24;102424.16;5094054;28;20443;-34
2021/11/16 10:00:24;;;;;;;44.92;25.30;;;;;;;5.12;94.26;102420.19;5094353;28;20032;-34
2021/11/16 10:02:59;;;;;;;46.35;26.48;;;;;;;5.11;93.88;102414.97;5094313;28;20077;-34
2021/11/16 10:05:26;;;;;;;46.92;25.42;;;;;;;5.11;93.57;102418.47;5094017;28;20024;-34
2021/11/16 10:08:01;;;;;;;45.80;24.30;;;;;;;5.09;93.71;102403.56;5093864;28;20038;-34
2021/11/16 10:10:31;;;;;;;49.42;27.63;;;;;;;5.12;93.41;102419.31;5094436;28;20030;-34
2021/11/16 10:13:01;;;;;;;45.40;23.83;;;;;;;5.13;93.44;102410.28;5093673;28;20484;-34
2021/11/16 10:15:30;;;;;;;46.35;25.90;;;;;;;5.24;92.77;102420.75;5094116;28;20051;-34
2021/11/16 10:17:56;;;;;;;47.20;26.10;;;;;;;5.24;91.98;102415.41;5093994;28;20035;-34
2021/11/16 10:20:26;;;;;;;43.97;25.38;;;;;;;5.23;92.67;102416.41;5093713;28;20415;-34
2021/11/16 10:22:54;;;;;;;42.88;23.73;;;;;;;5.28;92.35;102410.56;5093914;28;20032;-34
2021/11/16 10:25:25;;;;;;;46.15;25.60;;;;;;;5.25;92.31;102411.69;5093438;28;20089;-34
2021/11/16 10:27:56;;;;;;;42.17;23.85;;;;;;;5.25;92.07;102411.69;5094213;28;20032;-34
2021/11/16 10:30:32;;;;;;;44.97;24.88;;;;;;;5.29;92.31;102405.03;5094384;28;20035;-34
2021/11/16 10:33:08;;;;;;;46.58;25.63;;;;;;;5.26;91.82;102393.78;5093486;28;20031;-34
2021/11/16 10:35:34;;;;;;;50.58;27.95;;;;;;;5.13;90.93;102394.22;5093921;28;20057;-34
2021/11/16 10:38:03;;;;;;;48.53;25.67;;;;;;;5.13;91.63;102396.88;5093474;28;20414;-34
2021/11/16 10:40:30;;;;;;;44.95;24.45;;;;;;;4.94;92.12;102362.22;5093368;28;20028;-34
2021/11/16 10:42:59;;;;;;;45.88;25.80;;;;;;;5.15;91.64;102400.25;5092948;28;20036;-34
2021/11/16 10:45:28;;;;;;;45.83;25.33;;;;;;;5.10;91.92;102381.09;5093291;28;20032;-34
2021/11/16 10:48:03;;;;;;;49.17;27.23;;;;;;;5.21;92.30;102386.19;5093071;28;20034;-34
2021/11/16 10:50:30;;;;;;;45.75;26.50;;;;;;;5.20;92.23;102375.63;5093620;28;20074;-34
2021/11/16 10:53:26;;;;;;;47.33;28.20;;;;;;;5.30;92.17;102379.88;5093556;28;20430;-34
2021/11/16 10:55:55;;;;;;;46.17;26.05;;;;;;;5.30;92.03;102373.69;5070718;28;20119;-34
2021/11/16 10:58:27;;;;;;;46.58;25.83;;;;;;;5.09;92.71;102344.56;5070694;28;20040;-34
2021/11/16 11:01:04;;;;;;;50.33;27.65;;;;;;;5.25;92.70;102374.16;5074143;28;20040;-34
2021/11/16 11:03:33;;;;;;;44.80;24.80;;;;;;;5.32;94.09;102371.66;5074553;28;20036;-34
2021/11/16 11:06:10;;;;;;;44.80;25.92;;;;;;;5.29;93.11;102367.47;5074591;28;20459;-34
2021/11/16 11:08:45;;;;;;;50.90;27.08;;;;;;;5.31;92.72;102375.34;5074907;28;20032;-34
2021/11/16 11:11:34;;;;;;;45.33;23.20;;;;;;;5.30;92.54;102362.94;5074477;28;20039;-34
2021/11/16 11:14:09;;;;;;;47.13;26.75;;;;;;;5.22;92.69;102361.09;5074254;28;20040;-34
2021/11/16 11:16:56;;;;;;;50.08;26.80;;;;;;;5.16;92.83;102351.81;5074301;28;20135;-34
2021/11/16 11:19:28;;;;;;;48.90;26.38;;;;;;;5.24;93.29;102359.06;5074373;28;20044;-34
2021/11/16 11:25:07;;;;;;;49.80;25.95;;;;;;;5.07;92.61;102341.19;5074578;28;20456;-34
2021/11/16 11:27:56;;;;;;;;;;;;;;;5.33;92.56;102360.78;5075381;28;20032;-34
2021/11/16 11:30:23;;;;;;;45.83;23.92;;;;;;;5.25;91.98;102354.53;5074950;28;19908;-34
2021/11/16 11:32:52;;;;;;;45.13;25.17;;;;;;;5.16;92.63;102342.91;5090635;28;20040;-34
2021/11/16 11:35:20;;;;;;;43.58;23.85;;;;;;;5.30;92.89;102350.38;5096614;28;20440;-34
2021/11/16 11:37:58;;;;;;;42.35;23.33;;;;;;;5.30;92.52;102352.22;5096450;28;20034;-34